sensor_id;sensor_type;location;lat;lon;timestamp;P1;durP1;ratioP1;P2;durP2;ratioP2
12650;SDS011;6390;49.400;8.670;2023-07-31T03:31:50;1.35;;;1.17;;
12650;SDS011;6390;49.400;8.670;2023-07-31T03:34:16;1.20;;;1.10;;
12650;SDS011;6390;49.400;8.670;2023-07-31T03:36:43;2.38;;;1.30;;
12650;SDS011;6390;49.400;8.670;2023-07-31T03:39:09;1.30;;;1.20;;
12650;SDS011;6390;49.400;8.670;2023-07-31T03:41:35;2.88;;;1.60;;
12650;SDS011;6390;49.400;8.670;2023-07-31T03:44:01;1.60;;;1.40;;
12650;SDS011;6390;49.400;8.670;2023-07-31T03:46:27;1.73;;;1.10;;
12650;SDS011;6390;49.400;8.670;2023-07-31T03:48:54;1.35;;;1.20;;
12650;SDS011;6390;49.400;8.670;2023-07-31T03:51:21;2.47;;;1.35;;
12650;SDS011;6390;49.400;8.670;2023-07-31T03:53:47;1.83;;;1.25;;
12650;SDS011;6390;49.400;8.670;2023-07-31T03:56:13;1.40;;;1.25;;
12650;SDS011;6390;49.400;8.670;2023-07-31T03:58:39;1.40;;;1.30;;
12650;SDS011;6390;49.400;8.670;2023-07-31T04:01:05;1.80;;;1.15;;
12650;SDS011;6390;49.400;8.670;2023-07-31T04:03:32;1.40;;;1.27;;
12650;SDS011;6390;49.400;8.670;2023-07-31T04:05:58;3.03;;;1.40;;
12650;SDS011;6390;49.400;8.670;2023-07-31T04:08:24;2.40;;;1.48;;
12650;SDS011;6390;49.400;8.670;2023-07-31T04:10:50;1.23;;;1.13;;
12650;SDS011;6390;49.400;8.670;2023-07-31T04:13:16;1.30;;;1.20;;
12650;SDS011;6390;49.400;8.670;2023-07-31T04:15:42;1.92;;;1.30;;
12650;SDS011;6390;49.400;8.670;2023-07-31T04:18:15;2.65;;;1.02;;
12650;SDS011;6390;49.400;8.670;2023-07-31T04:20:42;1.30;;;1.02;;
12650;SDS011;6390;49.400;8.670;2023-07-31T04:23:08;1.88;;;1.38;;
12650;SDS011;6390;49.400;8.670;2023-07-31T04:25:34;2.08;;;1.30;;
12650;SDS011;6390;49.400;8.670;2023-07-31T04:28:00;1.90;;;1.20;;
12650;SDS011;6390;49.400;8.670;2023-07-31T04:30:26;2.25;;;1.40;;
12650;SDS011;6390;49.400;8.670;2023-07-31T04:32:52;1.70;;;1.30;;
12650;SDS011;6390;49.400;8.670;2023-07-31T04:35:19;1.13;;;1.00;;
12650;SDS011;6390;49.400;8.670;2023-07-31T04:37:45;2.95;;;2.00;;
12650;SDS011;6390;49.400;8.670;2023-07-31T04:40:13;1.70;;;1.20;;
12650;SDS011;6390;49.400;8.670;2023-07-31T04:42:40;2.03;;;1.23;;
12650;SDS011;6390;49.400;8.670;2023-07-31T04:45:08;2.33;;;1.40;;
12650;SDS011;6390;49.400;8.670;2023-07-31T04:47:34;2.05;;;1.48;;
12650;SDS011;6390;49.400;8.670;2023-07-31T04:50:00;1.77;;;1.38;;
12650;SDS011;6390;49.400;8.670;2023-07-31T04:52:27;2.15;;;1.30;;
12650;SDS011;6390;49.400;8.670;2023-07-31T04:54:53;2.05;;;1.30;;
12650;SDS011;6390;49.400;8.670;2023-07-31T04:57:19;3.30;;;1.30;;
12650;SDS011;6390;49.400;8.670;2023-07-31T04:59:45;1.98;;;1.35;;
12650;SDS011;6390;49.400;8.670;2023-07-31T05:02:12;3.47;;;1.20;;
12650;SDS011;6390;49.400;8.670;2023-07-31T05:04:38;1.60;;;1.33;;
12650;SDS011;6390;49.400;8.670;2023-07-31T05:07:04;1.70;;;1.50;;
12650;SDS011;6390;49.400;8.670;2023-07-31T05:09:31;1.90;;;1.33;;
12650;SDS011;6390;49.400;8.670;2023-07-31T05:11:57;2.13;;;1.40;;
12650;SDS011;6390;49.400;8.670;2023-07-31T05:14:23;1.73;;;1.27;;
12650;SDS011;6390;49.400;8.670;2023-07-31T05:16:49;1.75;;;1.20;;
12650;SDS011;6390;49.400;8.670;2023-07-31T05:19:15;1.50;;;1.20;;
12650;SDS011;6390;49.400;8.670;2023-07-31T05:21:41;2.85;;;1.42;;
12650;SDS011;6390;49.400;8.670;2023-07-31T05:24:07;1.80;;;1.30;;
12650;SDS011;6390;49.400;8.670;2023-07-31T05:26:34;2.35;;;1.40;;
12650;SDS011;6390;49.400;8.670;2023-07-31T05:29:00;1.58;;;1.35;;
12650;SDS011;6390;49.400;8.670;2023-07-31T05:31:27;1.35;;;1.10;;
12650;SDS011;6390;49.400;8.670;2023-07-31T05:33:53;1.75;;;1.15;;
12650;SDS011;6390;49.400;8.670;2023-07-31T05:36:19;2.20;;;1.38;;
12650;SDS011;6390;49.400;8.670;2023-07-31T05:38:45;1.45;;;1.20;;
12650;SDS011;6390;49.400;8.670;2023-07-31T05:41:11;1.92;;;1.35;;
12650;SDS011;6390;49.400;8.670;2023-07-31T05:43:38;1.70;;;1.30;;
12650;SDS011;6390;49.400;8.670;2023-07-31T05:46:04;2.22;;;1.30;;
12650;SDS011;6390;49.400;8.670;2023-07-31T05:48:31;2.83;;;1.15;;
12650;SDS011;6390;49.400;8.670;2023-07-31T05:51:01;1.42;;;1.30;;
12650;SDS011;6390;49.400;8.670;2023-07-31T05:53:27;1.90;;;1.38;;
12650;SDS011;6390;49.400;8.670;2023-07-31T05:55:53;1.88;;;1.67;;
12650;SDS011;6390;49.400;8.670;2023-07-31T05:58:19;1.95;;;1.27;;
12650;SDS011;6390;49.400;8.670;2023-07-31T06:00:46;2.60;;;1.30;;
12650;SDS011;6390;49.400;8.670;2023-07-31T06:03:12;2.97;;;1.70;;
12650;SDS011;6390;49.400;8.670;2023-07-31T06:05:38;1.40;;;1.30;;
12650;SDS011;6390;49.400;8.670;2023-07-31T06:08:04;3.90;;;1.25;;
12650;SDS011;6390;49.400;8.670;2023-07-31T06:10:30;2.00;;;1.45;;
12650;SDS011;6390;49.400;8.670;2023-07-31T06:12:57;3.65;;;1.50;;
12650;SDS011;6390;49.400;8.670;2023-07-31T06:15:23;1.58;;;1.30;;
12650;SDS011;6390;49.400;8.670;2023-07-31T06:17:49;2.47;;;1.60;;
12650;SDS011;6390;49.400;8.670;2023-07-31T06:20:15;1.77;;;1.25;;
12650;SDS011;6390;49.400;8.670;2023-07-31T06:22:41;2.05;;;1.50;;
12650;SDS011;6390;49.400;8.670;2023-07-31T06:25:07;1.67;;;1.50;;
12650;SDS011;6390;49.400;8.670;2023-07-31T06:27:34;2.33;;;1.77;;
12650;SDS011;6390;49.400;8.670;2023-07-31T06:30:00;4.18;;;1.90;;
12650;SDS011;6390;49.400;8.670;2023-07-31T06:32:26;2.90;;;1.70;;
12650;SDS011;6390;49.400;8.670;2023-07-31T06:34:52;2.38;;;1.35;;
12650;SDS011;6390;49.400;8.670;2023-07-31T06:37:19;2.20;;;1.58;;
12650;SDS011;6390;49.400;8.670;2023-07-31T06:39:45;2.03;;;1.40;;
12650;SDS011;6390;49.400;8.670;2023-07-31T06:42:11;1.40;;;1.30;;
12650;SDS011;6390;49.400;8.670;2023-07-31T06:44:37;1.95;;;1.50;;
12650;SDS011;6390;49.400;8.670;2023-07-31T06:47:03;1.83;;;1.30;;
12650;SDS011;6390;49.400;8.670;2023-07-31T06:49:30;1.50;;;1.40;;
12650;SDS011;6390;49.400;8.670;2023-07-31T06:51:56;1.73;;;1.30;;
12650;SDS011;6390;49.400;8.670;2023-07-31T06:54:22;3.72;;;1.45;;
12650;SDS011;6390;49.400;8.670;2023-07-31T06:56:48;2.15;;;1.33;;
12650;SDS011;6390;49.400;8.670;2023-07-31T06:59:14;1.63;;;1.40;;
12650;SDS011;6390;49.400;8.670;2023-07-31T07:01:40;2.22;;;1.23;;
12650;SDS011;6390;49.400;8.670;2023-07-31T07:04:06;1.80;;;1.20;;
12650;SDS011;6390;49.400;8.670;2023-07-31T07:06:32;1.80;;;1.23;;
12650;SDS011;6390;49.400;8.670;2023-07-31T07:08:59;1.85;;;1.30;;
12650;SDS011;6390;49.400;8.670;2023-07-31T07:11:25;2.28;;;1.42;;
12650;SDS011;6390;49.400;8.670;2023-07-31T07:13:51;1.75;;;1.50;;
12650;SDS011;6390;49.400;8.670;2023-07-31T07:16:17;1.42;;;1.33;;
12650;SDS011;6390;49.400;8.670;2023-07-31T07:18:43;1.98;;;1.10;;
12650;SDS011;6390;49.400;8.670;2023-07-31T07:21:09;1.45;;;1.20;;
12650;SDS011;6390;49.400;8.670;2023-07-31T07:23:39;1.60;;;1.40;;
12650;SDS011;6390;49.400;8.670;2023-07-31T07:26:05;1.88;;;1.33;;
12650;SDS011;6390;49.400;8.670;2023-07-31T07:28:31;1.80;;;1.45;;
12650;SDS011;6390;49.400;8.670;2023-07-31T07:30:57;1.73;;;1.42;;
12650;SDS011;6390;49.400;8.670;2023-07-31T07:33:23;1.63;;;1.38;;
12650;SDS011;6390;49.400;8.670;2023-07-31T07:35:49;2.17;;;1.52;;
12650;SDS011;6390;49.400;8.670;2023-07-31T07:38:16;1.55;;;1.30;;
12650;SDS011;6390;49.400;8.670;2023-07-31T07:40:44;1.52;;;1.35;;
12650;SDS011;6390;49.400;8.670;2023-07-31T07:43:11;1.80;;;1.23;;
12650;SDS011;6390;49.400;8.670;2023-07-31T07:45:37;1.58;;;1.10;;
12650;SDS011;6390;49.400;8.670;2023-07-31T07:48:04;1.33;;;1.13;;
12650;SDS011;6390;49.400;8.670;2023-07-31T07:50:30;1.63;;;1.20;;
12650;SDS011;6390;49.400;8.670;2023-07-31T07:52:57;2.58;;;1.23;;
12650;SDS011;6390;49.400;8.670;2023-07-31T07:55:23;1.60;;;1.13;;
12650;SDS011;6390;49.400;8.670;2023-07-31T07:57:49;2.38;;;1.58;;
12650;SDS011;6390;49.400;8.670;2023-07-31T08:00:15;2.47;;;1.23;;
12650;SDS011;6390;49.400;8.670;2023-07-31T08:02:42;1.95;;;1.25;;
12650;SDS011;6390;49.400;8.670;2023-07-31T08:05:08;3.75;;;1.25;;
12650;SDS011;6390;49.400;8.670;2023-07-31T08:07:35;1.63;;;1.30;;
12650;SDS011;6390;49.400;8.670;2023-07-31T08:10:01;2.38;;;1.27;;
12650;SDS011;6390;49.400;8.670;2023-07-31T08:12:27;1.45;;;1.10;;
12650;SDS011;6390;49.400;8.670;2023-07-31T08:14:53;1.58;;;1.27;;
12650;SDS011;6390;49.400;8.670;2023-07-31T08:17:20;1.40;;;1.30;;
12650;SDS011;6390;49.400;8.670;2023-07-31T08:19:46;1.38;;;1.10;;
12650;SDS011;6390;49.400;8.670;2023-07-31T08:22:12;1.80;;;1.35;;
12650;SDS011;6390;49.400;8.670;2023-07-31T08:24:39;2.38;;;1.40;;
12650;SDS011;6390;49.400;8.670;2023-07-31T08:27:06;1.95;;;1.55;;
12650;SDS011;6390;49.400;8.670;2023-07-31T08:29:32;2.38;;;1.30;;
12650;SDS011;6390;49.400;8.670;2023-07-31T08:31:58;2.22;;;1.30;;
12650;SDS011;6390;49.400;8.670;2023-07-31T08:34:24;1.58;;;1.30;;
12650;SDS011;6390;49.400;8.670;2023-07-31T08:36:50;1.48;;;1.20;;
12650;SDS011;6390;49.400;8.670;2023-07-31T08:39:16;2.42;;;1.38;;
12650;SDS011;6390;49.400;8.670;2023-07-31T08:41:43;2.10;;;1.42;;
12650;SDS011;6390;49.400;8.670;2023-07-31T08:44:09;1.45;;;1.23;;
12650;SDS011;6390;49.400;8.670;2023-07-31T08:46:36;1.40;;;1.30;;
12650;SDS011;6390;49.400;8.670;2023-07-31T08:49:06;1.50;;;1.27;;
12650;SDS011;6390;49.400;8.670;2023-07-31T08:51:36;1.30;;;1.20;;
12650;SDS011;6390;49.400;8.670;2023-07-31T08:54:02;1.60;;;1.33;;
12650;SDS011;6390;49.400;8.670;2023-07-31T08:56:31;2.35;;;1.20;;
12650;SDS011;6390;49.400;8.670;2023-07-31T08:58:58;2.25;;;1.50;;
12650;SDS011;6390;49.400;8.670;2023-07-31T09:01:27;2.15;;;1.50;;
12650;SDS011;6390;49.400;8.670;2023-07-31T09:03:56;1.92;;;1.35;;
12650;SDS011;6390;49.400;8.670;2023-07-31T09:06:25;2.53;;;1.50;;
12650;SDS011;6390;49.400;8.670;2023-07-31T09:08:57;2.65;;;1.45;;
12650;SDS011;6390;49.400;8.670;2023-07-31T09:11:24;2.83;;;1.50;;
12650;SDS011;6390;49.400;8.670;2023-07-31T09:13:50;2.13;;;1.30;;
12650;SDS011;6390;49.400;8.670;2023-07-31T09:16:18;1.63;;;1.15;;
12650;SDS011;6390;49.400;8.670;2023-07-31T09:18:53;1.83;;;1.50;;
12650;SDS011;6390;49.400;8.670;2023-07-31T09:21:21;1.75;;;1.30;;
12650;SDS011;6390;49.400;8.670;2023-07-31T09:23:49;2.92;;;1.30;;
12650;SDS011;6390;49.400;8.670;2023-07-31T09:26:32;1.58;;;1.15;;
12650;SDS011;6390;49.400;8.670;2023-07-31T09:29:00;2.05;;;1.67;;
12650;SDS011;6390;49.400;8.670;2023-07-31T09:34:06;1.80;;;1.35;;
12650;SDS011;6390;49.400;8.670;2023-07-31T09:36:39;2.10;;;1.45;;
12650;SDS011;6390;49.400;8.670;2023-07-31T09:39:10;1.38;;;1.15;;
12650;SDS011;6390;49.400;8.670;2023-07-31T09:41:37;3.78;;;1.75;;
12650;SDS011;6390;49.400;8.670;2023-07-31T09:44:06;3.20;;;1.65;;
12650;SDS011;6390;49.400;8.670;2023-07-31T09:46:34;1.50;;;1.30;;
12650;SDS011;6390;49.400;8.670;2023-07-31T09:51:38;2.78;;;1.58;;
12650;SDS011;6390;49.400;8.670;2023-07-31T09:54:16;1.52;;;1.30;;
12650;SDS011;6390;49.400;8.670;2023-07-31T09:56:44;2.00;;;1.52;;
12650;SDS011;6390;49.400;8.670;2023-07-31T09:59:12;2.42;;;1.38;;
12650;SDS011;6390;49.400;8.670;2023-07-31T10:01:41;2.67;;;1.65;;
12650;SDS011;6390;49.400;8.670;2023-07-31T10:04:09;1.50;;;1.40;;
12650;SDS011;6390;49.400;8.670;2023-07-31T10:06:36;2.20;;;1.40;;
12650;SDS011;6390;49.400;8.670;2023-07-31T10:09:07;2.20;;;1.50;;
12650;SDS011;6390;49.400;8.670;2023-07-31T10:11:43;1.65;;;1.30;;
12650;SDS011;6390;49.400;8.670;2023-07-31T10:14:18;4.78;;;1.52;;
12650;SDS011;6390;49.400;8.670;2023-07-31T10:16:45;2.00;;;1.58;;
12650;SDS011;6390;49.400;8.670;2023-07-31T10:19:11;1.95;;;1.45;;
12650;SDS011;6390;49.400;8.670;2023-07-31T10:21:37;1.55;;;1.40;;
12650;SDS011;6390;49.400;8.670;2023-07-31T10:24:04;2.95;;;1.48;;
12650;SDS011;6390;49.400;8.670;2023-07-31T10:26:31;2.55;;;1.75;;
12650;SDS011;6390;49.400;8.670;2023-07-31T10:28:58;2.28;;;1.73;;
12650;SDS011;6390;49.400;8.670;2023-07-31T10:31:26;2.20;;;1.50;;
12650;SDS011;6390;49.400;8.670;2023-07-31T10:33:53;3.25;;;1.50;;
12650;SDS011;6390;49.400;8.670;2023-07-31T10:36:24;1.63;;;1.38;;
12650;SDS011;6390;49.400;8.670;2023-07-31T10:38:50;2.85;;;1.40;;
12650;SDS011;6390;49.400;8.670;2023-07-31T10:41:17;1.88;;;1.25;;
12650;SDS011;6390;49.400;8.670;2023-07-31T10:43:45;2.38;;;1.48;;
12650;SDS011;6390;49.400;8.670;2023-07-31T10:46:12;2.58;;;1.55;;
12650;SDS011;6390;49.400;8.670;2023-07-31T10:48:39;2.15;;;1.60;;
12650;SDS011;6390;49.400;8.670;2023-07-31T10:51:10;3.78;;;1.67;;
12650;SDS011;6390;49.400;8.670;2023-07-31T10:53:37;3.28;;;1.80;;
12650;SDS011;6390;49.400;8.670;2023-07-31T10:56:06;2.53;;;1.50;;
12650;SDS011;6390;49.400;8.670;2023-07-31T10:58:34;1.92;;;1.52;;
12650;SDS011;6390;49.400;8.670;2023-07-31T11:01:02;3.00;;;1.63;;
12650;SDS011;6390;49.400;8.670;2023-07-31T11:03:51;2.50;;;1.52;;
12650;SDS011;6390;49.400;8.670;2023-07-31T11:06:19;1.80;;;1.60;;
12650;SDS011;6390;49.400;8.670;2023-07-31T11:08:48;1.73;;;1.63;;
12650;SDS011;6390;49.400;8.670;2023-07-31T11:11:16;2.30;;;1.55;;
12650;SDS011;6390;49.400;8.670;2023-07-31T11:13:46;1.95;;;1.58;;
12650;SDS011;6390;49.400;8.670;2023-07-31T11:16:21;2.45;;;1.70;;
12650;SDS011;6390;49.400;8.670;2023-07-31T11:18:49;3.20;;;1.70;;
12650;SDS011;6390;49.400;8.670;2023-07-31T11:21:17;2.45;;;1.67;;
12650;SDS011;6390;49.400;8.670;2023-07-31T11:23:57;2.00;;;1.55;;
12650;SDS011;6390;49.400;8.670;2023-07-31T11:26:23;1.73;;;1.50;;
12650;SDS011;6390;49.400;8.670;2023-07-31T11:28:50;1.80;;;1.52;;
12650;SDS011;6390;49.400;8.670;2023-07-31T11:31:17;3.15;;;1.55;;
12650;SDS011;6390;49.400;8.670;2023-07-31T11:33:44;2.28;;;1.60;;
12650;SDS011;6390;49.400;8.670;2023-07-31T11:36:20;2.35;;;1.80;;
12650;SDS011;6390;49.400;8.670;2023-07-31T11:38:46;2.05;;;1.50;;
12650;SDS011;6390;49.400;8.670;2023-07-31T11:41:14;1.85;;;1.60;;
12650;SDS011;6390;49.400;8.670;2023-07-31T11:43:44;4.43;;;1.35;;
12650;SDS011;6390;49.400;8.670;2023-07-31T11:46:12;2.83;;;1.25;;
12650;SDS011;6390;49.400;8.670;2023-07-31T11:48:39;1.60;;;1.50;;
12650;SDS011;6390;49.400;8.670;2023-07-31T11:51:08;1.85;;;1.40;;
12650;SDS011;6390;49.400;8.670;2023-07-31T11:53:51;1.75;;;1.58;;
12650;SDS011;6390;49.400;8.670;2023-07-31T11:56:21;2.53;;;1.60;;
12650;SDS011;6390;49.400;8.670;2023-07-31T11:58:50;2.58;;;1.35;;
12650;SDS011;6390;49.400;8.670;2023-07-31T12:01:22;2.85;;;1.58;;
12650;SDS011;6390;49.400;8.670;2023-07-31T12:03:50;2.20;;;1.60;;
12650;SDS011;6390;49.400;8.670;2023-07-31T12:06:16;2.83;;;1.45;;
12650;SDS011;6390;49.400;8.670;2023-07-31T12:08:42;3.45;;;1.67;;
12650;SDS011;6390;49.400;8.670;2023-07-31T12:11:09;1.50;;;1.33;;
12650;SDS011;6390;49.400;8.670;2023-07-31T12:13:35;2.88;;;1.65;;
12650;SDS011;6390;49.400;8.670;2023-07-31T12:16:02;2.08;;;1.75;;
12650;SDS011;6390;49.400;8.670;2023-07-31T12:18:36;3.95;;;1.70;;
12650;SDS011;6390;49.400;8.670;2023-07-31T12:21:06;2.70;;;1.33;;
12650;SDS011;6390;49.400;8.670;2023-07-31T12:23:38;1.83;;;1.63;;
12650;SDS011;6390;49.400;8.670;2023-07-31T12:26:13;1.60;;;1.50;;
12650;SDS011;6390;49.400;8.670;2023-07-31T12:31:15;2.80;;;1.70;;
12650;SDS011;6390;49.400;8.670;2023-07-31T12:33:47;1.92;;;1.70;;
12650;SDS011;6390;49.400;8.670;2023-07-31T12:36:16;1.45;;;1.35;;
12650;SDS011;6390;49.400;8.670;2023-07-31T12:38:46;2.35;;;1.80;;
12650;SDS011;6390;49.400;8.670;2023-07-31T12:41:12;1.80;;;1.50;;
12650;SDS011;6390;49.400;8.670;2023-07-31T12:43:39;3.67;;;1.40;;
12650;SDS011;6390;49.400;8.670;2023-07-31T12:46:07;3.55;;;1.70;;
12650;SDS011;6390;49.400;8.670;2023-07-31T12:48:34;2.17;;;1.52;;
12650;SDS011;6390;49.400;8.670;2023-07-31T12:51:01;1.55;;;1.45;;
12650;SDS011;6390;49.400;8.670;2023-07-31T12:53:27;2.60;;;1.80;;
12650;SDS011;6390;49.400;8.670;2023-07-31T12:55:54;2.40;;;1.42;;
12650;SDS011;6390;49.400;8.670;2023-07-31T12:58:21;1.98;;;1.50;;
12650;SDS011;6390;49.400;8.670;2023-07-31T13:00:47;2.13;;;1.60;;
12650;SDS011;6390;49.400;8.670;2023-07-31T13:03:14;2.03;;;1.80;;
12650;SDS011;6390;49.400;8.670;2023-07-31T13:05:40;1.58;;;1.48;;
12650;SDS011;6390;49.400;8.670;2023-07-31T13:08:06;1.85;;;1.50;;
12650;SDS011;6390;49.400;8.670;2023-07-31T13:10:32;1.98;;;1.67;;
12650;SDS011;6390;49.400;8.670;2023-07-31T13:12:59;1.88;;;1.48;;
12650;SDS011;6390;49.400;8.670;2023-07-31T13:15:25;2.13;;;1.42;;
12650;SDS011;6390;49.400;8.670;2023-07-31T13:17:51;1.42;;;1.30;;
12650;SDS011;6390;49.400;8.670;2023-07-31T13:20:17;2.17;;;1.40;;
12650;SDS011;6390;49.400;8.670;2023-07-31T13:22:43;2.15;;;1.45;;
12650;SDS011;6390;49.400;8.670;2023-07-31T13:25:09;2.50;;;1.58;;
12650;SDS011;6390;49.400;8.670;2023-07-31T13:27:36;1.90;;;1.45;;
12650;SDS011;6390;49.400;8.670;2023-07-31T13:30:02;1.92;;;1.58;;
12650;SDS011;6390;49.400;8.670;2023-07-31T13:32:29;2.15;;;1.50;;
12650;SDS011;6390;49.400;8.670;2023-07-31T13:34:55;1.50;;;1.35;;
12650;SDS011;6390;49.400;8.670;2023-07-31T13:37:21;1.63;;;1.23;;
12650;SDS011;6390;49.400;8.670;2023-07-31T13:39:47;2.45;;;1.25;;
12650;SDS011;6390;49.400;8.670;2023-07-31T13:42:13;2.35;;;1.48;;
12650;SDS011;6390;49.400;8.670;2023-07-31T13:44:40;1.45;;;1.35;;
12650;SDS011;6390;49.400;8.670;2023-07-31T13:47:07;1.70;;;1.60;;
12650;SDS011;6390;49.400;8.670;2023-07-31T13:49:34;2.00;;;1.70;;
12650;SDS011;6390;49.400;8.670;2023-07-31T13:52:01;2.28;;;1.52;;
12650;SDS011;6390;49.400;8.670;2023-07-31T13:54:28;2.22;;;1.50;;
12650;SDS011;6390;49.400;8.670;2023-07-31T13:56:54;2.72;;;1.42;;
12650;SDS011;6390;49.400;8.670;2023-07-31T13:59:20;2.17;;;1.70;;
12650;SDS011;6390;49.400;8.670;2023-07-31T14:01:47;1.75;;;1.40;;
12650;SDS011;6390;49.400;8.670;2023-07-31T14:04:13;2.38;;;1.50;;
12650;SDS011;6390;49.400;8.670;2023-07-31T14:06:39;3.00;;;1.67;;
12650;SDS011;6390;49.400;8.670;2023-07-31T14:09:06;2.53;;;1.58;;
12650;SDS011;6390;49.400;8.670;2023-07-31T14:11:32;2.85;;;1.85;;
12650;SDS011;6390;49.400;8.670;2023-07-31T14:13:58;1.50;;;1.35;;
12650;SDS011;6390;49.400;8.670;2023-07-31T14:16:24;2.17;;;1.42;;
12650;SDS011;6390;49.400;8.670;2023-07-31T14:18:50;2.70;;;1.60;;
12650;SDS011;6390;49.400;8.670;2023-07-31T14:21:18;2.58;;;1.80;;
12650;SDS011;6390;49.400;8.670;2023-07-31T14:23:44;2.53;;;1.48;;
12650;SDS011;6390;49.400;8.670;2023-07-31T14:26:11;2.55;;;1.50;;
12650;SDS011;6390;49.400;8.670;2023-07-31T14:28:37;2.22;;;1.90;;
12650;SDS011;6390;49.400;8.670;2023-07-31T14:31:03;2.95;;;1.70;;
12650;SDS011;6390;49.400;8.670;2023-07-31T14:33:30;1.60;;;1.50;;
12650;SDS011;6390;49.400;8.670;2023-07-31T14:35:56;2.25;;;1.55;;
12650;SDS011;6390;49.400;8.670;2023-07-31T14:38:22;2.55;;;1.60;;
12650;SDS011;6390;49.400;8.670;2023-07-31T14:40:48;2.25;;;1.42;;
12650;SDS011;6390;49.400;8.670;2023-07-31T14:43:14;1.50;;;1.40;;
12650;SDS011;6390;49.400;8.670;2023-07-31T14:45:40;2.13;;;1.48;;
12650;SDS011;6390;49.400;8.670;2023-07-31T14:48:07;1.95;;;1.73;;
12650;SDS011;6390;49.400;8.670;2023-07-31T14:50:33;2.03;;;1.50;;
12650;SDS011;6390;49.400;8.670;2023-07-31T14:52:59;2.20;;;1.52;;
12650;SDS011;6390;49.400;8.670;2023-07-31T14:55:25;2.80;;;1.63;;
12650;SDS011;6390;49.400;8.670;2023-07-31T14:57:51;1.95;;;1.38;;
12650;SDS011;6390;49.400;8.670;2023-07-31T15:00:18;1.65;;;1.40;;
12650;SDS011;6390;49.400;8.670;2023-07-31T15:02:44;2.50;;;1.48;;
12650;SDS011;6390;49.400;8.670;2023-07-31T15:05:10;1.70;;;1.40;;
12650;SDS011;6390;49.400;8.670;2023-07-31T15:07:36;1.98;;;1.42;;
12650;SDS011;6390;49.400;8.670;2023-07-31T15:10:03;1.60;;;1.50;;
12650;SDS011;6390;49.400;8.670;2023-07-31T15:12:30;2.90;;;1.48;;
12650;SDS011;6390;49.400;8.670;2023-07-31T15:14:56;1.83;;;1.50;;
12650;SDS011;6390;49.400;8.670;2023-07-31T15:17:22;1.60;;;1.17;;
12650;SDS011;6390;49.400;8.670;2023-07-31T15:19:49;3.05;;;1.50;;
12650;SDS011;6390;49.400;8.670;2023-07-31T15:22:15;1.70;;;1.30;;
12650;SDS011;6390;49.400;8.670;2023-07-31T15:24:41;3.20;;;1.45;;
12650;SDS011;6390;49.400;8.670;2023-07-31T15:27:07;1.55;;;1.45;;
12650;SDS011;6390;49.400;8.670;2023-07-31T15:29:34;2.22;;;1.40;;
12650;SDS011;6390;49.400;8.670;2023-07-31T15:32:02;3.95;;;1.50;;
12650;SDS011;6390;49.400;8.670;2023-07-31T15:34:30;1.83;;;1.33;;
12650;SDS011;6390;49.400;8.670;2023-07-31T15:36:56;1.63;;;1.30;;
12650;SDS011;6390;49.400;8.670;2023-07-31T15:39:22;1.42;;;1.33;;
12650;SDS011;6390;49.400;8.670;2023-07-31T15:41:48;2.35;;;1.42;;
12650;SDS011;6390;49.400;8.670;2023-07-31T15:44:14;2.78;;;1.45;;
12650;SDS011;6390;49.400;8.670;2023-07-31T15:46:41;1.90;;;1.17;;
12650;SDS011;6390;49.400;8.670;2023-07-31T15:49:07;1.90;;;1.70;;
12650;SDS011;6390;49.400;8.670;2023-07-31T15:51:33;1.90;;;1.60;;
12650;SDS011;6390;49.400;8.670;2023-07-31T15:53:59;1.75;;;1.48;;
12650;SDS011;6390;49.400;8.670;2023-07-31T15:56:26;2.50;;;1.65;;
12650;SDS011;6390;49.400;8.670;2023-07-31T15:58:52;2.58;;;1.33;;
12650;SDS011;6390;49.400;8.670;2023-07-31T16:01:21;1.50;;;1.40;;
12650;SDS011;6390;49.400;8.670;2023-07-31T16:03:47;1.92;;;1.50;;
12650;SDS011;6390;49.400;8.670;2023-07-31T16:06:14;1.48;;;1.35;;
12650;SDS011;6390;49.400;8.670;2023-07-31T16:08:40;2.05;;;1.60;;
12650;SDS011;6390;49.400;8.670;2023-07-31T16:11:09;2.78;;;2.08;;
12650;SDS011;6390;49.400;8.670;2023-07-31T16:13:35;3.05;;;2.20;;
12650;SDS011;6390;49.400;8.670;2023-07-31T16:16:02;6.40;;;5.07;;
12650;SDS011;6390;49.400;8.670;2023-07-31T16:18:28;4.75;;;2.97;;
12650;SDS011;6390;49.400;8.670;2023-07-31T16:20:55;3.70;;;3.03;;
12650;SDS011;6390;49.400;8.670;2023-07-31T16:23:21;3.55;;;3.05;;
12650;SDS011;6390;49.400;8.670;2023-07-31T16:25:47;5.45;;;4.10;;
12650;SDS011;6390;49.400;8.670;2023-07-31T16:28:15;4.95;;;3.30;;
12650;SDS011;6390;49.400;8.670;2023-07-31T16:30:41;3.53;;;2.83;;
12650;SDS011;6390;49.400;8.670;2023-07-31T16:33:09;2.92;;;2.50;;
12650;SDS011;6390;49.400;8.670;2023-07-31T16:35:35;2.70;;;2.50;;
12650;SDS011;6390;49.400;8.670;2023-07-31T16:38:01;2.97;;;2.45;;
12650;SDS011;6390;49.400;8.670;2023-07-31T16:40:27;5.40;;;4.80;;
12650;SDS011;6390;49.400;8.670;2023-07-31T16:42:53;4.65;;;4.15;;
12650;SDS011;6390;49.400;8.670;2023-07-31T16:45:19;5.22;;;4.05;;
12650;SDS011;6390;49.400;8.670;2023-07-31T16:47:45;4.07;;;3.53;;
12650;SDS011;6390;49.400;8.670;2023-07-31T16:50:11;7.60;;;6.78;;
12650;SDS011;6390;49.400;8.670;2023-07-31T16:52:39;5.18;;;4.68;;
12650;SDS011;6390;49.400;8.670;2023-07-31T16:55:05;3.60;;;3.30;;
12650;SDS011;6390;49.400;8.670;2023-07-31T16:57:31;2.72;;;2.35;;
12650;SDS011;6390;49.400;8.670;2023-07-31T16:59:58;2.15;;;1.90;;
12650;SDS011;6390;49.400;8.670;2023-07-31T17:02:24;3.30;;;2.00;;
12650;SDS011;6390;49.400;8.670;2023-07-31T17:04:50;2.55;;;1.83;;
12650;SDS011;6390;49.400;8.670;2023-07-31T17:07:17;3.08;;;2.17;;
12650;SDS011;6390;49.400;8.670;2023-07-31T17:09:45;2.17;;;1.83;;
12650;SDS011;6390;49.400;8.670;2023-07-31T17:12:12;3.45;;;2.03;;
12650;SDS011;6390;49.400;8.670;2023-07-31T17:14:38;2.08;;;1.77;;
12650;SDS011;6390;49.400;8.670;2023-07-31T17:17:04;2.35;;;1.75;;
12650;SDS011;6390;49.400;8.670;2023-07-31T17:19:31;2.30;;;2.10;;
12650;SDS011;6390;49.400;8.670;2023-07-31T17:21:57;2.80;;;2.33;;
12650;SDS011;6390;49.400;8.670;2023-07-31T17:24:23;8.88;;;7.47;;
12650;SDS011;6390;49.400;8.670;2023-07-31T17:26:49;18.33;;;15.00;;
12650;SDS011;6390;49.400;8.670;2023-07-31T17:29:16;15.20;;;13.25;;
12650;SDS011;6390;49.400;8.670;2023-07-31T17:31:42;11.70;;;9.85;;
12650;SDS011;6390;49.400;8.670;2023-07-31T17:34:08;6.72;;;5.82;;
12650;SDS011;6390;49.400;8.670;2023-07-31T17:36:35;8.10;;;4.90;;
12650;SDS011;6390;49.400;8.670;2023-07-31T17:39:01;5.40;;;4.47;;
12650;SDS011;6390;49.400;8.670;2023-07-31T17:41:28;3.88;;;3.13;;
12650;SDS011;6390;49.400;8.670;2023-07-31T17:43:56;4.15;;;2.97;;
12650;SDS011;6390;49.400;8.670;2023-07-31T17:46:22;4.00;;;2.50;;
12650;SDS011;6390;49.400;8.670;2023-07-31T17:48:48;3.10;;;2.35;;
12650;SDS011;6390;49.400;8.670;2023-07-31T17:51:14;4.72;;;2.20;;
12650;SDS011;6390;49.400;8.670;2023-07-31T17:53:40;2.42;;;2.17;;
12650;SDS011;6390;49.400;8.670;2023-07-31T17:56:06;2.20;;;1.83;;
12650;SDS011;6390;49.400;8.670;2023-07-31T17:58:32;3.40;;;1.90;;
12650;SDS011;6390;49.400;8.670;2023-07-31T18:00:59;3.22;;;2.00;;
12650;SDS011;6390;49.400;8.670;2023-07-31T18:03:25;2.75;;;1.88;;
12650;SDS011;6390;49.400;8.670;2023-07-31T18:05:51;4.03;;;2.10;;
12650;SDS011;6390;49.400;8.670;2023-07-31T18:08:18;4.15;;;2.30;;
12650;SDS011;6390;49.400;8.670;2023-07-31T18:10:44;2.17;;;1.90;;
12650;SDS011;6390;49.400;8.670;2023-07-31T18:13:11;3.65;;;1.90;;
12650;SDS011;6390;49.400;8.670;2023-07-31T18:15:45;2.65;;;1.83;;
12650;SDS011;6390;49.400;8.670;2023-07-31T18:18:12;2.10;;;1.85;;
12650;SDS011;6390;49.400;8.670;2023-07-31T18:20:38;2.25;;;2.00;;
12650;SDS011;6390;49.400;8.670;2023-07-31T18:23:04;3.38;;;2.10;;
12650;SDS011;6390;49.400;8.670;2023-07-31T18:25:31;4.65;;;2.08;;
12650;SDS011;6390;49.400;8.670;2023-07-31T18:27:57;2.85;;;2.08;;
12650;SDS011;6390;49.400;8.670;2023-07-31T18:30:23;3.05;;;1.83;;
12650;SDS011;6390;49.400;8.670;2023-07-31T18:32:49;2.85;;;2.33;;
12650;SDS011;6390;49.400;8.670;2023-07-31T18:35:15;4.65;;;1.95;;
12650;SDS011;6390;49.400;8.670;2023-07-31T18:37:44;2.17;;;1.98;;